<?xml version="1.0" encoding="UTF-8" standalone="no" ?>
<gpx xmlns="http://www.topografix.com/GPX/1/1" xmlns:xsi="http://www.w3.org/2001/XMLSchema-instance" xsi:schemaLocation="http://www.topografix.com/GPX/1/1 http://www.topografix.com/GPX/1/1/gpx.xsd" version="1.1" creator="VisuGPX - https://www.visugpx.com">
  <metadata>
    <name>13748138-La Mouille (Jura)</name>
  </metadata>
  <trk>
    <name><![CDATA[13748138-La Mouille (Jura)]]></name>
    <trkseg>
      <trkpt lat="46.49808" lon="5.97572">
        <ele>925</ele>
        <time>2021-09-24T17:32:09Z</time>
      </trkpt>
      <trkpt lat="46.499" lon="5.97417">
        <ele>913</ele>
        <time>2021-09-24T17:35:17Z</time>
      </trkpt>
      <trkpt lat="46.4991" lon="5.97384">
        <ele>911</ele>
        <time>2021-09-24T17:35:50Z</time>
      </trkpt>
      <trkpt lat="46.49915" lon="5.97393">
        <ele>911</ele>
        <time>2021-09-24T17:36:01Z</time>
      </trkpt>
      <trkpt lat="46.49939" lon="5.97389">
        <ele>909</ele>
        <time>2021-09-24T17:36:33Z</time>
      </trkpt>
      <trkpt lat="46.49965" lon="5.97397">
        <ele>907</ele>
        <time>2021-09-24T17:37:08Z</time>
      </trkpt>
      <trkpt lat="46.49991" lon="5.97418">
        <ele>906</ele>
        <time>2021-09-24T17:37:48Z</time>
      </trkpt>
      <trkpt lat="46.5001" lon="5.97431">
        <ele>904</ele>
        <time>2021-09-24T17:38:16Z</time>
      </trkpt>
      <trkpt lat="46.50031" lon="5.97461">
        <ele>902</ele>
        <time>2021-09-24T17:38:55Z</time>
      </trkpt>
      <trkpt lat="46.50044" lon="5.97491">
        <ele>902</ele>
        <time>2021-09-24T17:39:28Z</time>
      </trkpt>
      <trkpt lat="46.50056" lon="5.9749">
        <ele>901</ele>
        <time>2021-09-24T17:39:44Z</time>
      </trkpt>
      <trkpt lat="46.50083" lon="5.97464">
        <ele>898</ele>
        <time>2021-09-24T17:40:27Z</time>
      </trkpt>
      <trkpt lat="46.50102" lon="5.9746">
        <ele>898</ele>
        <time>2021-09-24T17:40:53Z</time>
      </trkpt>
      <trkpt lat="46.50183" lon="5.97466">
        <ele>897</ele>
        <time>2021-09-24T17:42:41Z</time>
      </trkpt>
      <trkpt lat="46.50247" lon="5.97453">
        <ele>893</ele>
        <time>2021-09-24T17:44:07Z</time>
      </trkpt>
      <trkpt lat="46.50298" lon="5.97443">
        <ele>894</ele>
        <time>2021-09-24T17:45:16Z</time>
      </trkpt>
      <trkpt lat="46.50325" lon="5.9744">
        <ele>894</ele>
        <time>2021-09-24T17:45:52Z</time>
      </trkpt>
      <trkpt lat="46.50377" lon="5.97442">
        <ele>895</ele>
        <time>2021-09-24T17:47:02Z</time>
      </trkpt>
      <trkpt lat="46.50406" lon="5.97451">
        <ele>897</ele>
        <time>2021-09-24T17:47:41Z</time>
      </trkpt>
      <trkpt lat="46.50427" lon="5.97472">
        <ele>900</ele>
        <time>2021-09-24T17:48:15Z</time>
      </trkpt>
      <trkpt lat="46.50435" lon="5.97483">
        <ele>901</ele>
        <time>2021-09-24T17:48:30Z</time>
      </trkpt>
      <trkpt lat="46.50444" lon="5.97547">
        <ele>906</ele>
        <time>2021-09-24T17:49:30Z</time>
      </trkpt>
      <trkpt lat="46.50458" lon="5.97614">
        <ele>908</ele>
        <time>2021-09-24T17:50:34Z</time>
      </trkpt>
      <trkpt lat="46.50461" lon="5.97674">
        <ele>909</ele>
        <time>2021-09-24T17:51:29Z</time>
      </trkpt>
      <trkpt lat="46.50455" lon="5.97709">
        <ele>911</ele>
        <time>2021-09-24T17:52:03Z</time>
      </trkpt>
      <trkpt lat="46.5043" lon="5.97795">
        <ele>916</ele>
        <time>2021-09-24T17:53:28Z</time>
      </trkpt>
      <trkpt lat="46.50433" lon="5.979">
        <ele>918</ele>
        <time>2021-09-24T17:55:05Z</time>
      </trkpt>
      <trkpt lat="46.50443" lon="5.97932">
        <ele>918</ele>
        <time>2021-09-24T17:55:37Z</time>
      </trkpt>
      <trkpt lat="46.50457" lon="5.97952">
        <ele>918</ele>
        <time>2021-09-24T17:56:03Z</time>
      </trkpt>
      <trkpt lat="46.50463" lon="5.97967">
        <ele>917</ele>
        <time>2021-09-24T17:56:19Z</time>
      </trkpt>
      <trkpt lat="46.50464" lon="5.97979">
        <ele>916</ele>
        <time>2021-09-24T17:56:30Z</time>
      </trkpt>
      <trkpt lat="46.50457" lon="5.97999">
        <ele>916</ele>
        <time>2021-09-24T17:56:51Z</time>
      </trkpt>
      <trkpt lat="46.50475" lon="5.98016">
        <ele>915</ele>
        <time>2021-09-24T17:57:20Z</time>
      </trkpt>
      <trkpt lat="46.50458" lon="5.98048">
        <ele>916</ele>
        <time>2021-09-24T17:57:57Z</time>
      </trkpt>
      <trkpt lat="46.50403" lon="5.98182">
        <ele>923</ele>
        <time>2021-09-24T18:00:20Z</time>
      </trkpt>
      <trkpt lat="46.50389" lon="5.98209">
        <ele>926</ele>
        <time>2021-09-24T18:00:51Z</time>
      </trkpt>
      <trkpt lat="46.50373" lon="5.9822">
        <ele>928</ele>
        <time>2021-09-24T18:01:15Z</time>
      </trkpt>
      <trkpt lat="46.50345" lon="5.98215">
        <ele>930</ele>
        <time>2021-09-24T18:01:52Z</time>
      </trkpt>
      <trkpt lat="46.50326" lon="5.98208">
        <ele>931</ele>
        <time>2021-09-24T18:02:19Z</time>
      </trkpt>
      <trkpt lat="46.50303" lon="5.98213">
        <ele>933</ele>
        <time>2021-09-24T18:02:50Z</time>
      </trkpt>
      <trkpt lat="46.50286" lon="5.98229">
        <ele>936</ele>
        <time>2021-09-24T18:03:17Z</time>
      </trkpt>
      <trkpt lat="46.50282" lon="5.98248">
        <ele>937</ele>
        <time>2021-09-24T18:03:35Z</time>
      </trkpt>
      <trkpt lat="46.5029" lon="5.98266">
        <ele>940</ele>
        <time>2021-09-24T18:03:55Z</time>
      </trkpt>
      <trkpt lat="46.50316" lon="5.98286">
        <ele>941</ele>
        <time>2021-09-24T18:04:34Z</time>
      </trkpt>
      <trkpt lat="46.50364" lon="5.98329">
        <ele>944</ele>
        <time>2021-09-24T18:05:49Z</time>
      </trkpt>
      <trkpt lat="46.50403" lon="5.98366">
        <ele>948</ele>
        <time>2021-09-24T18:06:51Z</time>
      </trkpt>
      <trkpt lat="46.50415" lon="5.9838">
        <ele>949</ele>
        <time>2021-09-24T18:07:12Z</time>
      </trkpt>
      <trkpt lat="46.50429" lon="5.98421">
        <ele>955</ele>
        <time>2021-09-24T18:07:54Z</time>
      </trkpt>
      <trkpt lat="46.5044" lon="5.98436">
        <ele>958</ele>
        <time>2021-09-24T18:08:14Z</time>
      </trkpt>
      <trkpt lat="46.50456" lon="5.98484">
        <ele>966</ele>
        <time>2021-09-24T18:09:03Z</time>
      </trkpt>
      <trkpt lat="46.50506" lon="5.98544">
        <ele>970</ele>
        <time>2021-09-24T18:10:29Z</time>
      </trkpt>
      <trkpt lat="46.5053" lon="5.98619">
        <ele>979</ele>
        <time>2021-09-24T18:11:45Z</time>
      </trkpt>
      <trkpt lat="46.5055" lon="5.98664">
        <ele>981</ele>
        <time>2021-09-24T18:12:35Z</time>
      </trkpt>
      <trkpt lat="46.50553" lon="5.98709">
        <ele>986</ele>
        <time>2021-09-24T18:13:16Z</time>
      </trkpt>
      <trkpt lat="46.50561" lon="5.98759">
        <ele>990</ele>
        <time>2021-09-24T18:14:03Z</time>
      </trkpt>
      <trkpt lat="46.5058" lon="5.9879">
        <ele>988</ele>
        <time>2021-09-24T18:14:41Z</time>
      </trkpt>
      <trkpt lat="46.50616" lon="5.98883">
        <ele>991</ele>
        <time>2021-09-24T18:16:19Z</time>
      </trkpt>
      <trkpt lat="46.50616" lon="5.98917">
        <ele>993</ele>
        <time>2021-09-24T18:16:51Z</time>
      </trkpt>
      <trkpt lat="46.50628" lon="5.9898">
        <ele>999</ele>
        <time>2021-09-24T18:17:51Z</time>
      </trkpt>
      <trkpt lat="46.50642" lon="5.99018">
        <ele>1002</ele>
        <time>2021-09-24T18:18:30Z</time>
      </trkpt>
      <trkpt lat="46.50663" lon="5.99045">
        <ele>1003</ele>
        <time>2021-09-24T18:19:08Z</time>
      </trkpt>
      <trkpt lat="46.50669" lon="5.99082">
        <ele>1005</ele>
        <time>2021-09-24T18:19:43Z</time>
      </trkpt>
      <trkpt lat="46.5067" lon="5.99207">
        <ele>1009</ele>
        <time>2021-09-24T18:21:37Z</time>
      </trkpt>
      <trkpt lat="46.50676" lon="5.9925">
        <ele>1011</ele>
        <time>2021-09-24T18:22:18Z</time>
      </trkpt>
      <trkpt lat="46.50672" lon="5.99344">
        <ele>1016</ele>
        <time>2021-09-24T18:23:44Z</time>
      </trkpt>
      <trkpt lat="46.50664" lon="5.99435">
        <ele>1022</ele>
        <time>2021-09-24T18:25:09Z</time>
      </trkpt>
      <trkpt lat="46.50672" lon="5.99474">
        <ele>1025</ele>
        <time>2021-09-24T18:25:46Z</time>
      </trkpt>
      <trkpt lat="46.50671" lon="5.9952">
        <ele>1028</ele>
        <time>2021-09-24T18:26:28Z</time>
      </trkpt>
      <trkpt lat="46.50673" lon="5.99567">
        <ele>1031</ele>
        <time>2021-09-24T18:27:11Z</time>
      </trkpt>
      <trkpt lat="46.50668" lon="5.99603">
        <ele>1033</ele>
        <time>2021-09-24T18:27:45Z</time>
      </trkpt>
      <trkpt lat="46.50645" lon="5.99655">
        <ele>1034</ele>
        <time>2021-09-24T18:28:42Z</time>
      </trkpt>
      <trkpt lat="46.50621" lon="5.9976">
        <ele>1040</ele>
        <time>2021-09-24T18:30:24Z</time>
      </trkpt>
      <trkpt lat="46.50601" lon="5.99791">
        <ele>1043</ele>
        <time>2021-09-24T18:31:03Z</time>
      </trkpt>
      <trkpt lat="46.50585" lon="5.99808">
        <ele>1046</ele>
        <time>2021-09-24T18:31:29Z</time>
      </trkpt>
      <trkpt lat="46.50559" lon="5.99861">
        <ele>1051</ele>
        <time>2021-09-24T18:32:29Z</time>
      </trkpt>
      <trkpt lat="46.5055" lon="5.99912">
        <ele>1054</ele>
        <time>2021-09-24T18:33:17Z</time>
      </trkpt>
      <trkpt lat="46.50558" lon="5.99976">
        <ele>1058</ele>
        <time>2021-09-24T18:34:17Z</time>
      </trkpt>
      <trkpt lat="46.50557" lon="6.00017">
        <ele>1060</ele>
        <time>2021-09-24T18:34:55Z</time>
      </trkpt>
      <trkpt lat="46.50553" lon="6.0005">
        <ele>1062</ele>
        <time>2021-09-24T18:35:25Z</time>
      </trkpt>
      <trkpt lat="46.50554" lon="6.00126">
        <ele>1067</ele>
        <time>2021-09-24T18:36:35Z</time>
      </trkpt>
      <trkpt lat="46.5056" lon="6.00179">
        <ele>1071</ele>
        <time>2021-09-24T18:37:25Z</time>
      </trkpt>
      <trkpt lat="46.50555" lon="6.00272">
        <ele>1077</ele>
        <time>2021-09-24T18:38:50Z</time>
      </trkpt>
      <trkpt lat="46.5058" lon="6.00378">
        <ele>1081</ele>
        <time>2021-09-24T18:40:33Z</time>
      </trkpt>
      <trkpt lat="46.50582" lon="6.00437">
        <ele>1084</ele>
        <time>2021-09-24T18:41:27Z</time>
      </trkpt>
      <trkpt lat="46.5058" lon="6.00471">
        <ele>1086</ele>
        <time>2021-09-24T18:41:59Z</time>
      </trkpt>
      <trkpt lat="46.50555" lon="6.00528">
        <ele>1090</ele>
        <time>2021-09-24T18:43:01Z</time>
      </trkpt>
      <trkpt lat="46.5053" lon="6.00622">
        <ele>1096</ele>
        <time>2021-09-24T18:44:33Z</time>
      </trkpt>
      <trkpt lat="46.50523" lon="6.00706">
        <ele>1100</ele>
        <time>2021-09-24T18:45:51Z</time>
      </trkpt>
      <trkpt lat="46.50508" lon="6.00748">
        <ele>1103</ele>
        <time>2021-09-24T18:46:35Z</time>
      </trkpt>
      <trkpt lat="46.50498" lon="6.00797">
        <ele>1105</ele>
        <time>2021-09-24T18:47:21Z</time>
      </trkpt>
      <trkpt lat="46.50493" lon="6.00829">
        <ele>1107</ele>
        <time>2021-09-24T18:47:52Z</time>
      </trkpt>
      <trkpt lat="46.50505" lon="6.00853">
        <ele>1107</ele>
        <time>2021-09-24T18:48:19Z</time>
      </trkpt>
      <trkpt lat="46.50529" lon="6.00842">
        <ele>1104</ele>
        <time>2021-09-24T18:48:52Z</time>
      </trkpt>
      <trkpt lat="46.5055" lon="6.00848">
        <ele>1103</ele>
        <time>2021-09-24T18:49:21Z</time>
      </trkpt>
      <trkpt lat="46.50556" lon="6.00868">
        <ele>1103</ele>
        <time>2021-09-24T18:49:41Z</time>
      </trkpt>
      <trkpt lat="46.50583" lon="6.00886">
        <ele>1101</ele>
        <time>2021-09-24T18:50:21Z</time>
      </trkpt>
      <trkpt lat="46.50621" lon="6.00877">
        <ele>1097</ele>
        <time>2021-09-24T18:51:12Z</time>
      </trkpt>
      <trkpt lat="46.50629" lon="6.00865">
        <ele>1096</ele>
        <time>2021-09-24T18:51:27Z</time>
      </trkpt>
      <trkpt lat="46.50634" lon="6.00866">
        <ele>1095</ele>
        <time>2021-09-24T18:51:34Z</time>
      </trkpt>
      <trkpt lat="46.5064" lon="6.00858">
        <ele>1095</ele>
        <time>2021-09-24T18:51:45Z</time>
      </trkpt>
      <trkpt lat="46.50649" lon="6.00858">
        <ele>1094</ele>
        <time>2021-09-24T18:51:57Z</time>
      </trkpt>
      <trkpt lat="46.5065" lon="6.00867">
        <ele>1094</ele>
        <time>2021-09-24T18:52:05Z</time>
      </trkpt>
      <trkpt lat="46.50658" lon="6.00879">
        <ele>1092</ele>
        <time>2021-09-24T18:52:21Z</time>
      </trkpt>
      <trkpt lat="46.50668" lon="6.00904">
        <ele>1089</ele>
        <time>2021-09-24T18:52:47Z</time>
      </trkpt>
      <trkpt lat="46.50672" lon="6.00911">
        <ele>1088</ele>
        <time>2021-09-24T18:52:56Z</time>
      </trkpt>
      <trkpt lat="46.50684" lon="6.00914">
        <ele>1086</ele>
        <time>2021-09-24T18:53:12Z</time>
      </trkpt>
      <trkpt lat="46.50704" lon="6.00898">
        <ele>1083</ele>
        <time>2021-09-24T18:53:42Z</time>
      </trkpt>
      <trkpt lat="46.50707" lon="6.0089">
        <ele>1083</ele>
        <time>2021-09-24T18:53:51Z</time>
      </trkpt>
      <trkpt lat="46.50717" lon="6.00883">
        <ele>1081</ele>
        <time>2021-09-24T18:54:06Z</time>
      </trkpt>
      <trkpt lat="46.5072" lon="6.00894">
        <ele>1080</ele>
        <time>2021-09-24T18:54:16Z</time>
      </trkpt>
      <trkpt lat="46.50716" lon="6.00907">
        <ele>1080</ele>
        <time>2021-09-24T18:54:29Z</time>
      </trkpt>
      <trkpt lat="46.50693" lon="6.00937">
        <ele>1081</ele>
        <time>2021-09-24T18:55:11Z</time>
      </trkpt>
      <trkpt lat="46.50676" lon="6.00982">
        <ele>1079</ele>
        <time>2021-09-24T18:55:58Z</time>
      </trkpt>
      <trkpt lat="46.50676" lon="6.00989">
        <ele>1078</ele>
        <time>2021-09-24T18:56:04Z</time>
      </trkpt>
      <trkpt lat="46.50673" lon="6.01002">
        <ele>1077</ele>
        <time>2021-09-24T18:56:17Z</time>
      </trkpt>
      <trkpt lat="46.50655" lon="6.01031">
        <ele>1075</ele>
        <time>2021-09-24T18:56:53Z</time>
      </trkpt>
      <trkpt lat="46.50643" lon="6.01037">
        <ele>1076</ele>
        <time>2021-09-24T18:57:10Z</time>
      </trkpt>
      <trkpt lat="46.50637" lon="6.01046">
        <ele>1075</ele>
        <time>2021-09-24T18:57:21Z</time>
      </trkpt>
      <trkpt lat="46.50631" lon="6.01062">
        <ele>1073</ele>
        <time>2021-09-24T18:57:38Z</time>
      </trkpt>
      <trkpt lat="46.50623" lon="6.01071">
        <ele>1071</ele>
        <time>2021-09-24T18:57:51Z</time>
      </trkpt>
      <trkpt lat="46.50615" lon="6.01085">
        <ele>1069</ele>
        <time>2021-09-24T18:58:08Z</time>
      </trkpt>
      <trkpt lat="46.50599" lon="6.01097">
        <ele>1068</ele>
        <time>2021-09-24T18:58:32Z</time>
      </trkpt>
      <trkpt lat="46.50591" lon="6.01111">
        <ele>1066</ele>
        <time>2021-09-24T18:58:49Z</time>
      </trkpt>
      <trkpt lat="46.50587" lon="6.01115">
        <ele>1065</ele>
        <time>2021-09-24T18:58:55Z</time>
      </trkpt>
      <trkpt lat="46.50586" lon="6.01131">
        <ele>1062</ele>
        <time>2021-09-24T18:59:10Z</time>
      </trkpt>
      <trkpt lat="46.5059" lon="6.01139">
        <ele>1061</ele>
        <time>2021-09-24T18:59:19Z</time>
      </trkpt>
      <trkpt lat="46.50605" lon="6.01147">
        <ele>1059</ele>
        <time>2021-09-24T18:59:41Z</time>
      </trkpt>
      <trkpt lat="46.50616" lon="6.01147">
        <ele>1058</ele>
        <time>2021-09-24T18:59:55Z</time>
      </trkpt>
      <trkpt lat="46.5062" lon="6.01151">
        <ele>1058</ele>
        <time>2021-09-24T19:00:02Z</time>
      </trkpt>
      <trkpt lat="46.50626" lon="6.0115">
        <ele>1058</ele>
        <time>2021-09-24T19:00:10Z</time>
      </trkpt>
      <trkpt lat="46.50627" lon="6.01155">
        <ele>1057</ele>
        <time>2021-09-24T19:00:15Z</time>
      </trkpt>
      <trkpt lat="46.50642" lon="6.01164">
        <ele>1055</ele>
        <time>2021-09-24T19:00:36Z</time>
      </trkpt>
      <trkpt lat="46.50654" lon="6.01166">
        <ele>1054</ele>
        <time>2021-09-24T19:00:52Z</time>
      </trkpt>
      <trkpt lat="46.50678" lon="6.01153">
        <ele>1054</ele>
        <time>2021-09-24T19:01:26Z</time>
      </trkpt>
      <trkpt lat="46.50705" lon="6.01129">
        <ele>1054</ele>
        <time>2021-09-24T19:02:09Z</time>
      </trkpt>
      <trkpt lat="46.50729" lon="6.01104">
        <ele>1055</ele>
        <time>2021-09-24T19:02:48Z</time>
      </trkpt>
      <trkpt lat="46.50752" lon="6.01088">
        <ele>1055</ele>
        <time>2021-09-24T19:03:22Z</time>
      </trkpt>
      <trkpt lat="46.50762" lon="6.01082">
        <ele>1055</ele>
        <time>2021-09-24T19:03:37Z</time>
      </trkpt>
      <trkpt lat="46.50768" lon="6.01084">
        <ele>1055</ele>
        <time>2021-09-24T19:03:45Z</time>
      </trkpt>
      <trkpt lat="46.5075" lon="6.01144">
        <ele>1045</ele>
        <time>2021-09-24T19:04:45Z</time>
      </trkpt>
      <trkpt lat="46.50725" lon="6.01206">
        <ele>1036</ele>
        <time>2021-09-24T19:05:51Z</time>
      </trkpt>
      <trkpt lat="46.50703" lon="6.0123">
        <ele>1033</ele>
        <time>2021-09-24T19:06:28Z</time>
      </trkpt>
      <trkpt lat="46.50717" lon="6.01324">
        <ele>1007</ele>
        <time>2021-09-24T19:07:56Z</time>
      </trkpt>
      <trkpt lat="46.50715" lon="6.0139">
        <ele>994</ele>
        <time>2021-09-24T19:08:57Z</time>
      </trkpt>
      <trkpt lat="46.50723" lon="6.01455">
        <ele>983</ele>
        <time>2021-09-24T19:09:57Z</time>
      </trkpt>
      <trkpt lat="46.50735" lon="6.01493">
        <ele>977</ele>
        <time>2021-09-24T19:10:36Z</time>
      </trkpt>
      <trkpt lat="46.50655" lon="6.01564">
        <ele>972</ele>
        <time>2021-09-24T19:12:41Z</time>
      </trkpt>
      <trkpt lat="46.50614" lon="6.0161">
        <ele>966</ele>
        <time>2021-09-24T19:13:50Z</time>
      </trkpt>
      <trkpt lat="46.50589" lon="6.01643">
        <ele>965</ele>
        <time>2021-09-24T19:14:35Z</time>
      </trkpt>
      <trkpt lat="46.50553" lon="6.01637">
        <ele>961</ele>
        <time>2021-09-24T19:15:23Z</time>
      </trkpt>
      <trkpt lat="46.50569" lon="6.01604">
        <ele>962</ele>
        <time>2021-09-24T19:16:00Z</time>
      </trkpt>
      <trkpt lat="46.50539" lon="6.01564">
        <ele>966</ele>
        <time>2021-09-24T19:16:55Z</time>
      </trkpt>
      <trkpt lat="46.50418" lon="6.01616">
        <ele>970</ele>
        <time>2021-09-24T19:19:43Z</time>
      </trkpt>
      <trkpt lat="46.50361" lon="6.01688">
        <ele>971</ele>
        <time>2021-09-24T19:21:24Z</time>
      </trkpt>
      <trkpt lat="46.50314" lon="6.01702">
        <ele>975</ele>
        <time>2021-09-24T19:22:28Z</time>
      </trkpt>
      <trkpt lat="46.50271" lon="6.01678">
        <ele>982</ele>
        <time>2021-09-24T19:23:29Z</time>
      </trkpt>
      <trkpt lat="46.50214" lon="6.01655">
        <ele>996</ele>
        <time>2021-09-24T19:24:48Z</time>
      </trkpt>
      <trkpt lat="46.50094" lon="6.01736">
        <ele>992</ele>
        <time>2021-09-24T19:27:45Z</time>
      </trkpt>
      <trkpt lat="46.50043" lon="6.01745">
        <ele>994</ele>
        <time>2021-09-24T19:28:54Z</time>
      </trkpt>
      <trkpt lat="46.50008" lon="6.01742">
        <ele>998</ele>
        <time>2021-09-24T19:29:40Z</time>
      </trkpt>
      <trkpt lat="46.49965" lon="6.01755">
        <ele>987</ele>
        <time>2021-09-24T19:30:39Z</time>
      </trkpt>
      <trkpt lat="46.49888" lon="6.01623">
        <ele>1008</ele>
        <time>2021-09-24T19:33:18Z</time>
      </trkpt>
      <trkpt lat="46.49807" lon="6.01517">
        <ele>1017</ele>
        <time>2021-09-24T19:35:43Z</time>
      </trkpt>
      <trkpt lat="46.49744" lon="6.01399">
        <ele>1032</ele>
        <time>2021-09-24T19:38:01Z</time>
      </trkpt>
      <trkpt lat="46.49707" lon="6.01412">
        <ele>1028</ele>
        <time>2021-09-24T19:38:51Z</time>
      </trkpt>
      <trkpt lat="46.49695" lon="6.01388">
        <ele>1030</ele>
        <time>2021-09-24T19:39:19Z</time>
      </trkpt>
      <trkpt lat="46.49659" lon="6.01382">
        <ele>1029</ele>
        <time>2021-09-24T19:40:07Z</time>
      </trkpt>
      <trkpt lat="46.49625" lon="6.01329">
        <ele>1033</ele>
        <time>2021-09-24T19:41:13Z</time>
      </trkpt>
      <trkpt lat="46.49571" lon="6.01294">
        <ele>1039</ele>
        <time>2021-09-24T19:42:32Z</time>
      </trkpt>
      <trkpt lat="46.49419" lon="6.01164">
        <ele>1045</ele>
        <time>2021-09-24T19:46:28Z</time>
      </trkpt>
      <trkpt lat="46.4937" lon="6.01106">
        <ele>1052</ele>
        <time>2021-09-24T19:47:52Z</time>
      </trkpt>
      <trkpt lat="46.4931" lon="6.00942">
        <ele>1065</ele>
        <time>2021-09-24T19:50:43Z</time>
      </trkpt>
      <trkpt lat="46.49255" lon="6.00815">
        <ele>1061</ele>
        <time>2021-09-24T19:53:01Z</time>
      </trkpt>
      <trkpt lat="46.49214" lon="6.00661">
        <ele>1062</ele>
        <time>2021-09-24T19:55:32Z</time>
      </trkpt>
      <trkpt lat="46.49153" lon="6.00466">
        <ele>1051</ele>
        <time>2021-09-24T19:58:49Z</time>
      </trkpt>
      <trkpt lat="46.49079" lon="6.00323">
        <ele>1046</ele>
        <time>2021-09-24T20:01:33Z</time>
      </trkpt>
      <trkpt lat="46.49037" lon="6.00253">
        <ele>1046</ele>
        <time>2021-09-24T20:02:59Z</time>
      </trkpt>
      <trkpt lat="46.48952" lon="6.00161">
        <ele>1044</ele>
        <time>2021-09-24T20:05:20Z</time>
      </trkpt>
      <trkpt lat="46.48878" lon="6.0005">
        <ele>1034</ele>
        <time>2021-09-24T20:07:42Z</time>
      </trkpt>
      <trkpt lat="46.48939" lon="5.99988">
        <ele>1031</ele>
        <time>2021-09-24T20:09:21Z</time>
      </trkpt>
      <trkpt lat="46.48932" lon="5.99922">
        <ele>1031</ele>
        <time>2021-09-24T20:10:23Z</time>
      </trkpt>
      <trkpt lat="46.48887" lon="5.99766">
        <ele>1026</ele>
        <time>2021-09-24T20:12:58Z</time>
      </trkpt>
      <trkpt lat="46.48891" lon="5.99725">
        <ele>1026</ele>
        <time>2021-09-24T20:13:36Z</time>
      </trkpt>
      <trkpt lat="46.48842" lon="5.9961">
        <ele>1020</ele>
        <time>2021-09-24T20:15:41Z</time>
      </trkpt>
      <trkpt lat="46.48816" lon="5.99405">
        <ele>1033</ele>
        <time>2021-09-24T20:18:52Z</time>
      </trkpt>
      <trkpt lat="46.4875" lon="5.9923">
        <ele>1029</ele>
        <time>2021-09-24T20:21:55Z</time>
      </trkpt>
      <trkpt lat="46.48668" lon="5.99068">
        <ele>1030</ele>
        <time>2021-09-24T20:25:00Z</time>
      </trkpt>
      <trkpt lat="46.48622" lon="5.99004">
        <ele>1032</ele>
        <time>2021-09-24T20:26:25Z</time>
      </trkpt>
      <trkpt lat="46.48598" lon="5.98871">
        <ele>1032</ele>
        <time>2021-09-24T20:28:31Z</time>
      </trkpt>
      <trkpt lat="46.48566" lon="5.98756">
        <ele>1031</ele>
        <time>2021-09-24T20:30:25Z</time>
      </trkpt>
      <trkpt lat="46.48571" lon="5.98733">
        <ele>1030</ele>
        <time>2021-09-24T20:30:48Z</time>
      </trkpt>
      <trkpt lat="46.4863" lon="5.98709">
        <ele>1032</ele>
        <time>2021-09-24T20:32:09Z</time>
      </trkpt>
      <trkpt lat="46.4864" lon="5.98669">
        <ele>1033</ele>
        <time>2021-09-24T20:32:48Z</time>
      </trkpt>
      <trkpt lat="46.48598" lon="5.98595">
        <ele>1031</ele>
        <time>2021-09-24T20:34:17Z</time>
      </trkpt>
      <trkpt lat="46.48555" lon="5.9839">
        <ele>1034</ele>
        <time>2021-09-24T20:37:33Z</time>
      </trkpt>
      <trkpt lat="46.48553" lon="5.9832">
        <ele>1038</ele>
        <time>2021-09-24T20:38:38Z</time>
      </trkpt>
      <trkpt lat="46.48562" lon="5.98288">
        <ele>1042</ele>
        <time>2021-09-24T20:39:10Z</time>
      </trkpt>
      <trkpt lat="46.48599" lon="5.98355">
        <ele>1046</ele>
        <time>2021-09-24T20:40:29Z</time>
      </trkpt>
      <trkpt lat="46.48668" lon="5.9854">
        <ele>1048</ele>
        <time>2021-09-24T20:43:42Z</time>
      </trkpt>
      <trkpt lat="46.4872" lon="5.98567">
        <ele>1053</ele>
        <time>2021-09-24T20:44:56Z</time>
      </trkpt>
      <trkpt lat="46.48765" lon="5.98622">
        <ele>1058</ele>
        <time>2021-09-24T20:46:14Z</time>
      </trkpt>
      <trkpt lat="46.48803" lon="5.98724">
        <ele>1058</ele>
        <time>2021-09-24T20:48:01Z</time>
      </trkpt>
      <trkpt lat="46.48855" lon="5.98889">
        <ele>1059</ele>
        <time>2021-09-24T20:50:47Z</time>
      </trkpt>
      <trkpt lat="46.48892" lon="5.98959">
        <ele>1064</ele>
        <time>2021-09-24T20:52:08Z</time>
      </trkpt>
      <trkpt lat="46.48992" lon="5.98944">
        <ele>1077</ele>
        <time>2021-09-24T20:54:23Z</time>
      </trkpt>
      <trkpt lat="46.4904" lon="5.98991">
        <ele>1081</ele>
        <time>2021-09-24T20:55:40Z</time>
      </trkpt>
      <trkpt lat="46.49099" lon="5.99079">
        <ele>1080</ele>
        <time>2021-09-24T20:57:33Z</time>
      </trkpt>
      <trkpt lat="46.49206" lon="5.99111">
        <ele>1084</ele>
        <time>2021-09-24T20:59:58Z</time>
      </trkpt>
      <trkpt lat="46.49294" lon="5.99295">
        <ele>1096</ele>
        <time>2021-09-24T21:03:24Z</time>
      </trkpt>
      <trkpt lat="46.49393" lon="5.9951">
        <ele>1103</ele>
        <time>2021-09-24T21:07:22Z</time>
      </trkpt>
      <trkpt lat="46.49425" lon="5.99566">
        <ele>1107</ele>
        <time>2021-09-24T21:08:29Z</time>
      </trkpt>
      <trkpt lat="46.49487" lon="5.99615">
        <ele>1111</ele>
        <time>2021-09-24T21:10:03Z</time>
      </trkpt>
      <trkpt lat="46.4953" lon="5.99705">
        <ele>1119</ele>
        <time>2021-09-24T21:11:44Z</time>
      </trkpt>
      <trkpt lat="46.49659" lon="5.99686">
        <ele>1107</ele>
        <time>2021-09-24T21:14:37Z</time>
      </trkpt>
      <trkpt lat="46.49685" lon="5.9972">
        <ele>1108</ele>
        <time>2021-09-24T21:15:23Z</time>
      </trkpt>
      <trkpt lat="46.49706" lon="5.99823">
        <ele>1112</ele>
        <time>2021-09-24T21:17:02Z</time>
      </trkpt>
      <trkpt lat="46.49759" lon="5.9981">
        <ele>1109</ele>
        <time>2021-09-24T21:18:14Z</time>
      </trkpt>
      <trkpt lat="46.49809" lon="5.9963">
        <ele>1099</ele>
        <time>2021-09-24T21:21:12Z</time>
      </trkpt>
      <trkpt lat="46.49873" lon="5.99544">
        <ele>1088</ele>
        <time>2021-09-24T21:23:08Z</time>
      </trkpt>
      <trkpt lat="46.49901" lon="5.99426">
        <ele>1081</ele>
        <time>2021-09-24T21:25:03Z</time>
      </trkpt>
      <trkpt lat="46.50081" lon="5.99304">
        <ele>1062</ele>
        <time>2021-09-24T21:29:28Z</time>
      </trkpt>
      <trkpt lat="46.5019" lon="5.99188">
        <ele>1038</ele>
        <time>2021-09-24T21:32:28Z</time>
      </trkpt>
      <trkpt lat="46.50266" lon="5.99115">
        <ele>1025</ele>
        <time>2021-09-24T21:34:30Z</time>
      </trkpt>
      <trkpt lat="46.50286" lon="5.99068">
        <ele>1023</ele>
        <time>2021-09-24T21:35:21Z</time>
      </trkpt>
      <trkpt lat="46.50297" lon="5.98963">
        <ele>1021</ele>
        <time>2021-09-24T21:36:58Z</time>
      </trkpt>
      <trkpt lat="46.50376" lon="5.98878">
        <ele>1012</ele>
        <time>2021-09-24T21:39:09Z</time>
      </trkpt>
      <trkpt lat="46.50431" lon="5.98831">
        <ele>1003</ele>
        <time>2021-09-24T21:40:35Z</time>
      </trkpt>
      <trkpt lat="46.50455" lon="5.9885">
        <ele>1001</ele>
        <time>2021-09-24T21:41:11Z</time>
      </trkpt>
      <trkpt lat="46.50493" lon="5.98872">
        <ele>997</ele>
        <time>2021-09-24T21:42:06Z</time>
      </trkpt>
      <trkpt lat="46.50528" lon="5.98866">
        <ele>994</ele>
        <time>2021-09-24T21:42:53Z</time>
      </trkpt>
      <trkpt lat="46.50557" lon="5.98837">
        <ele>991</ele>
        <time>2021-09-24T21:43:40Z</time>
      </trkpt>
      <trkpt lat="46.50567" lon="5.98805">
        <ele>990</ele>
        <time>2021-09-24T21:44:12Z</time>
      </trkpt>
      <trkpt lat="46.50576" lon="5.9879">
        <ele>989</ele>
        <time>2021-09-24T21:44:30Z</time>
      </trkpt>
      <trkpt lat="46.50556" lon="5.9876">
        <ele>990</ele>
        <time>2021-09-24T21:45:09Z</time>
      </trkpt>
      <trkpt lat="46.50549" lon="5.9871">
        <ele>986</ele>
        <time>2021-09-24T21:45:55Z</time>
      </trkpt>
      <trkpt lat="46.50546" lon="5.98664">
        <ele>982</ele>
        <time>2021-09-24T21:46:38Z</time>
      </trkpt>
      <trkpt lat="46.50525" lon="5.98621">
        <ele>979</ele>
        <time>2021-09-24T21:47:26Z</time>
      </trkpt>
      <trkpt lat="46.50502" lon="5.98546">
        <ele>971</ele>
        <time>2021-09-24T21:48:42Z</time>
      </trkpt>
      <trkpt lat="46.50452" lon="5.98486">
        <ele>967</ele>
        <time>2021-09-24T21:50:08Z</time>
      </trkpt>
      <trkpt lat="46.50435" lon="5.9844">
        <ele>959</ele>
        <time>2021-09-24T21:50:56Z</time>
      </trkpt>
      <trkpt lat="46.50424" lon="5.98423">
        <ele>956</ele>
        <time>2021-09-24T21:51:18Z</time>
      </trkpt>
      <trkpt lat="46.50411" lon="5.98383">
        <ele>950</ele>
        <time>2021-09-24T21:51:58Z</time>
      </trkpt>
      <trkpt lat="46.50362" lon="5.98335">
        <ele>945</ele>
        <time>2021-09-24T21:53:17Z</time>
      </trkpt>
      <trkpt lat="46.50311" lon="5.98291">
        <ele>942</ele>
        <time>2021-09-24T21:54:36Z</time>
      </trkpt>
      <trkpt lat="46.50252" lon="5.98263">
        <ele>942</ele>
        <time>2021-09-24T21:55:59Z</time>
      </trkpt>
      <trkpt lat="46.50214" lon="5.98253">
        <ele>948</ele>
        <time>2021-09-24T21:56:51Z</time>
      </trkpt>
      <trkpt lat="46.50162" lon="5.98201">
        <ele>951</ele>
        <time>2021-09-24T21:58:15Z</time>
      </trkpt>
      <trkpt lat="46.501" lon="5.98164">
        <ele>960</ele>
        <time>2021-09-24T21:59:44Z</time>
      </trkpt>
      <trkpt lat="46.5004" lon="5.98118">
        <ele>964</ele>
        <time>2021-09-24T22:01:15Z</time>
      </trkpt>
      <trkpt lat="46.4998" lon="5.9805">
        <ele>964</ele>
        <time>2021-09-24T22:02:56Z</time>
      </trkpt>
      <trkpt lat="46.49955" lon="5.98023">
        <ele>965</ele>
        <time>2021-09-24T22:03:38Z</time>
      </trkpt>
      <trkpt lat="46.49927" lon="5.97977">
        <ele>959</ele>
        <time>2021-09-24T22:04:34Z</time>
      </trkpt>
      <trkpt lat="46.4988" lon="5.97921">
        <ele>957</ele>
        <time>2021-09-24T22:05:56Z</time>
      </trkpt>
      <trkpt lat="46.49796" lon="5.97844">
        <ele>959</ele>
        <time>2021-09-24T22:08:08Z</time>
      </trkpt>
      <trkpt lat="46.49765" lon="5.97808">
        <ele>956</ele>
        <time>2021-09-24T22:09:01Z</time>
      </trkpt>
      <trkpt lat="46.49737" lon="5.97769">
        <ele>951</ele>
        <time>2021-09-24T22:09:53Z</time>
      </trkpt>
      <trkpt lat="46.49656" lon="5.97697">
        <ele>954</ele>
        <time>2021-09-24T22:12:00Z</time>
      </trkpt>
      <trkpt lat="46.49581" lon="5.97622">
        <ele>954</ele>
        <time>2021-09-24T22:14:01Z</time>
      </trkpt>
      <trkpt lat="46.49524" lon="5.97564">
        <ele>955</ele>
        <time>2021-09-24T22:15:34Z</time>
      </trkpt>
      <trkpt lat="46.49497" lon="5.97513">
        <ele>949</ele>
        <time>2021-09-24T22:16:33Z</time>
      </trkpt>
      <trkpt lat="46.495" lon="5.97461">
        <ele>939</ele>
        <time>2021-09-24T22:17:21Z</time>
      </trkpt>
      <trkpt lat="46.49527" lon="5.97423">
        <ele>931</ele>
        <time>2021-09-24T22:18:11Z</time>
      </trkpt>
      <trkpt lat="46.49563" lon="5.97365">
        <ele>926</ele>
        <time>2021-09-24T22:19:23Z</time>
      </trkpt>
      <trkpt lat="46.49683" lon="5.97481">
        <ele>931</ele>
        <time>2021-09-24T22:22:35Z</time>
      </trkpt>
      <trkpt lat="46.498" lon="5.97574">
        <ele>925</ele>
        <time>2021-09-24T22:25:33Z</time>
      </trkpt>
    </trkseg>
  </trk>
</gpx>